Terminal Aerodrome Forecast
Issued by NWS Sterling, VA

Home | Current Version | Previous Version | Text Only | Print | Product List | Glossary On
Versions: 1 2 3 4 5 6 7 8 9 10 11 12 13 14 15 16 17 18 19 20
000
FTUS41 KLWX 232300
TAFMRB
TAF
KMRB 232320Z 2400/2424 29005KT P6SM BKN080
     FM240200 30004KT P6SM BKN040 BKN080
     FM241000 35006KT P6SM BKN040 OVC080
     FM242300 35005KT P6SM SCT040=

USA.gov is the U.S. government's official web portal to all federal, state and local government web resources and services.